createdAt,value
2022-10-29T00:02:11.063Z,13.68
2022-10-29T00:07:13.200Z,13.69
2022-10-29T00:12:13.968Z,13.58
2022-10-29T00:17:15.891Z,13.60
2022-10-29T00:22:18.072Z,13.63
2022-10-29T00:27:18.837Z,13.66
2022-10-29T00:32:19.781Z,13.56
2022-10-29T00:37:21.956Z,13.52
2022-10-29T00:42:22.724Z,13.40
2022-10-29T00:47:27.366Z,13.50
2022-10-29T00:52:33.273Z,13.45
2022-10-29T00:57:40.512Z,13.40
2022-10-29T01:02:42.214Z,13.41
2022-10-29T01:07:44.476Z,13.32
2022-10-29T01:13:09.976Z,13.32
2022-10-29T01:18:18.299Z,13.38
2022-10-29T01:24:06.293Z,13.30
2022-10-29T01:29:21.271Z,13.37
2022-10-29T01:34:29.957Z,13.46
2022-10-29T01:39:38.787Z,13.49
2022-10-29T01:44:46.506Z,13.52
2022-10-29T01:49:52.563Z,13.56
2022-10-29T01:54:53.305Z,13.64
2022-10-29T01:59:56.342Z,13.67
2022-10-29T02:05:12.360Z,13.66
2022-10-29T02:10:20.421Z,13.66
2022-10-29T02:15:26.426Z,13.61
2022-10-29T02:20:28.677Z,13.63
2022-10-29T02:25:29.534Z,13.63
2022-10-29T02:30:33.096Z,13.64
2022-10-29T02:35:35.244Z,13.61
2022-10-29T02:40:36.024Z,13.64
2022-10-29T02:45:36.826Z,13.58
2022-10-29T02:50:38.942Z,13.61
2022-10-29T02:55:39.726Z,13.66
2022-10-29T03:00:40.533Z,13.51
2022-10-29T03:05:46.570Z,13.61
2022-10-29T03:10:49.867Z,13.61
2022-10-29T03:15:50.645Z,13.38
2022-10-29T03:20:52.945Z,13.45
2022-10-29T03:25:56.034Z,13.37
2022-10-29T03:30:57.808Z,13.32
2022-10-29T03:36:02.151Z,13.28
2022-10-29T03:41:08.513Z,13.10
2022-10-29T03:46:09.436Z,13.05
2022-10-29T03:51:11.997Z,12.99
2022-10-29T03:56:12.809Z,12.95
2022-10-29T04:01:13.648Z,12.97
2022-10-29T04:06:18.275Z,12.90
2022-10-29T04:11:19.192Z,12.81
2022-10-29T04:16:19.996Z,12.80
2022-10-29T04:32:05.255Z,12.56
2022-10-29T04:37:07.928Z,12.48
2022-10-29T04:42:08.692Z,12.59
2022-10-29T04:47:09.462Z,12.49
2022-10-29T04:52:11.582Z,12.43
2022-10-29T04:57:12.429Z,12.38
2022-10-29T05:02:13.179Z,12.38
2022-10-29T05:07:15.371Z,12.37
2022-10-29T05:12:16.172Z,12.24
2022-10-29T05:17:17.139Z,12.22
2022-10-29T05:22:19.400Z,12.14
2022-10-29T05:27:20.192Z,12.16
2022-10-29T05:32:21.009Z,12.31
2022-10-29T05:37:25.478Z,12.39
2022-10-29T05:42:26.323Z,12.46
2022-10-29T05:47:27.123Z,12.56
2022-10-29T05:52:29.216Z,12.51
2022-10-29T05:57:30.380Z,12.59
2022-10-29T06:02:31.369Z,12.55
2022-10-29T06:07:33.656Z,12.50
2022-10-29T06:12:35.093Z,12.51
2022-10-29T06:17:35.947Z,12.47
2022-10-29T06:22:38.244Z,12.47
2022-10-29T06:27:39.142Z,12.49
2022-10-29T06:32:39.935Z,12.62
2022-10-29T06:37:42.069Z,12.58
2022-10-29T06:42:42.876Z,12.65
2022-10-29T06:47:45.191Z,13.02
2022-10-29T06:52:55.413Z,13.27
2022-10-29T06:58:00.504Z,13.36
2022-10-29T07:03:01.425Z,13.39
2022-10-29T07:08:06.236Z,13.36
2022-10-29T07:13:07.017Z,13.30
2022-10-29T07:18:10.590Z,13.43
2022-10-29T07:23:13.637Z,13.64
2022-10-29T07:28:16.283Z,13.60
2022-10-29T07:33:17.642Z,13.49
2022-10-29T07:38:19.873Z,13.42
2022-10-29T07:43:21.843Z,13.49
2022-10-29T07:48:23.765Z,13.63
2022-10-29T07:53:26.072Z,13.72
2022-10-29T07:58:27.479Z,13.89
2022-10-29T08:03:28.333Z,14.06
2022-10-29T08:08:30.961Z,14.18
2022-10-29T08:13:32.231Z,14.20
2022-10-29T08:18:33.005Z,14.19
2022-10-29T08:23:35.207Z,14.31
2022-10-29T08:28:36.077Z,14.54
2022-10-29T08:33:37.134Z,14.74
2022-10-29T08:38:40.287Z,14.95
2022-10-29T08:44:16.560Z,15.22
2022-10-29T08:49:20.837Z,15.54
2022-10-29T08:54:31.025Z,15.92
2022-10-29T08:59:36.735Z,16.25
2022-10-29T09:04:39.256Z,16.50
2022-10-29T09:09:45.578Z,16.75
2022-10-29T09:15:04.408Z,16.54
2022-10-29T09:20:24.357Z,16.63
2022-10-29T09:25:31.480Z,16.90
2022-10-29T09:30:32.651Z,17.12
2022-10-29T09:35:40.106Z,17.20
2022-10-29T09:40:43.870Z,17.19
2022-10-29T09:45:49.270Z,17.19
2022-10-29T09:51:00.796Z,17.13
2022-10-29T09:56:03.204Z,17.22
2022-10-29T10:01:04.048Z,17.42
2022-10-29T10:06:07.266Z,17.96
2022-10-29T10:11:19.644Z,18.11
2022-10-29T10:16:25.152Z,18.20
2022-10-29T10:21:27.620Z,18.24
2022-10-29T10:26:32.621Z,18.25
2022-10-29T10:31:33.574Z,18.44
2022-10-29T10:36:39.655Z,18.61
2022-10-29T10:41:44.286Z,18.63
2022-10-29T10:46:46.273Z,18.68
2022-10-29T10:51:51.712Z,18.89
2022-10-29T10:57:00.327Z,19.44
2022-10-29T11:02:03.076Z,19.29
2022-10-29T11:07:07.292Z,19.33
2022-10-29T11:12:14.748Z,19.59
2022-10-29T11:17:27.984Z,19.83
2022-10-29T11:22:34.861Z,19.89
2022-10-29T11:27:46.353Z,19.85
2022-10-29T11:32:57.851Z,19.91
2022-10-29T11:38:04.163Z,19.81
2022-10-29T11:43:12.058Z,19.89
2022-10-29T11:48:22.063Z,20.01
2022-10-29T11:53:34.160Z,20.22
2022-10-29T11:58:46.075Z,20.16
2022-10-29T12:04:14.937Z,20.26
2022-10-29T12:09:43.205Z,20.44
2022-10-29T12:14:50.096Z,20.29
2022-10-29T12:19:59.295Z,20.29
2022-10-29T12:25:15.192Z,20.03
2022-10-29T12:30:20.030Z,19.91
2022-10-29T12:35:28.722Z,19.90
2022-10-29T12:40:34.365Z,19.84
2022-10-29T12:45:59.585Z,19.88
2022-10-29T12:51:10.879Z,19.90
2022-10-29T12:56:16.398Z,19.83
2022-10-29T13:02:10.352Z,19.76
2022-10-29T13:07:24.604Z,19.62
2022-10-29T13:12:57.812Z,19.68
2022-10-29T13:18:05.806Z,19.69
2022-10-29T13:23:33.008Z,19.74
2022-10-29T13:28:52.071Z,19.58
2022-10-29T13:33:54.409Z,19.47
2022-10-29T13:39:07.455Z,19.39
2022-10-29T13:44:12.528Z,19.30
2022-10-29T13:49:19.205Z,19.05
2022-10-29T13:54:32.029Z,18.76
2022-10-29T13:59:40.935Z,18.65
2022-10-29T14:04:47.603Z,18.47
2022-10-29T14:09:52.911Z,18.33
2022-10-29T14:15:01.670Z,18.20
2022-10-29T14:20:03.930Z,18.21
2022-10-29T14:25:28.399Z,18.28
2022-10-29T14:30:29.354Z,18.34
2022-10-29T14:35:31.661Z,18.42
2022-10-29T14:40:35.751Z,18.38
2022-10-29T14:45:36.719Z,18.32
2022-10-29T14:50:39.142Z,18.30
2022-10-29T14:55:46.367Z,18.23
2022-10-29T15:00:55.183Z,18.08
2022-10-29T15:06:14.594Z,18.04
2022-10-29T15:11:36.747Z,17.97
2022-10-29T15:16:39.877Z,17.71
2022-10-29T15:21:45.716Z,17.56
2022-10-29T15:26:50.432Z,17.42
2022-10-29T15:31:53.630Z,17.33
2022-10-29T15:36:57.712Z,17.13
2022-10-29T15:42:00.827Z,17.01
2022-10-29T15:47:03.255Z,16.82
2022-10-29T15:52:05.734Z,16.75
2022-10-29T15:57:07.006Z,16.71
2022-10-29T16:02:11.963Z,16.52
2022-10-29T16:07:15.056Z,16.30
2022-10-29T16:12:16.022Z,16.06
2022-10-29T16:17:18.494Z,16.01
2022-10-29T16:22:29.547Z,15.88
2022-10-29T16:27:30.368Z,15.79
2022-10-29T16:32:31.372Z,15.71
2022-10-29T16:37:33.502Z,15.60
2022-10-29T16:42:36.296Z,15.45
2022-10-29T16:47:37.173Z,15.53
2022-10-29T16:52:39.383Z,15.49
2022-10-29T16:57:40.685Z,15.47
2022-10-29T17:02:44.567Z,15.46
2022-10-29T17:07:46.798Z,15.47
2022-10-29T17:12:48.368Z,15.44
2022-10-29T17:17:49.161Z,15.43
2022-10-29T17:22:51.383Z,15.43
2022-10-29T17:27:52.189Z,15.45
2022-10-29T17:32:53.000Z,15.48
2022-10-29T17:37:55.220Z,15.51
2022-10-29T17:42:56.321Z,15.36
2022-10-29T17:47:58.362Z,15.27
2022-10-29T17:53:00.742Z,15.24
2022-10-29T17:58:01.596Z,15.16
2022-10-29T18:03:02.577Z,15.11
2022-10-29T18:08:04.963Z,15.16
2022-10-29T18:13:05.764Z,15.06
2022-10-29T18:18:06.650Z,15.04
2022-10-29T18:23:10.932Z,15.02
2022-10-29T18:28:11.839Z,15.02
2022-10-29T18:33:12.730Z,14.92
2022-10-29T18:38:15.075Z,14.82
2022-10-29T18:43:15.844Z,14.77
2022-10-29T18:48:16.760Z,14.81
2022-10-29T18:53:19.602Z,14.68
2022-10-29T18:58:21.186Z,14.69
2022-10-29T19:03:22.216Z,14.56
2022-10-29T19:08:24.470Z,14.48
2022-10-29T19:13:25.471Z,14.42
2022-10-29T19:18:26.288Z,14.35
2022-10-29T19:23:28.413Z,14.33
2022-10-29T19:28:30.559Z,14.28
2022-10-29T19:33:31.381Z,14.24
2022-10-29T19:38:33.874Z,14.18
2022-10-29T19:43:34.699Z,14.05
2022-10-29T19:48:35.822Z,13.95
2022-10-29T19:53:41.636Z,14.08
2022-10-29T19:58:43.065Z,13.90
2022-10-29T20:03:44.425Z,13.80
2022-10-29T20:08:46.822Z,13.76
2022-10-29T20:13:47.588Z,13.65
2022-10-29T20:18:49.759Z,13.63
2022-10-29T20:23:51.896Z,13.55
2022-10-29T20:28:52.736Z,13.50
2022-10-29T20:33:55.161Z,13.48
2022-10-29T20:38:57.681Z,13.46
2022-10-29T20:44:01.126Z,13.47
2022-10-29T20:49:02.014Z,13.37
2022-10-29T20:54:04.317Z,13.31
2022-10-29T20:59:05.105Z,13.32
2022-10-29T21:04:06.093Z,13.23
2022-10-29T21:09:08.239Z,13.19
2022-10-29T21:14:09.028Z,13.17
2022-10-29T21:19:09.855Z,13.06
2022-10-29T21:24:12.096Z,13.15
2022-10-29T21:29:12.924Z,13.09
2022-10-29T21:34:13.807Z,13.05
2022-10-29T21:39:15.964Z,13.04
2022-10-29T21:44:16.812Z,12.98
2022-10-29T21:49:17.605Z,12.90
2022-10-29T21:54:21.873Z,12.91
2022-10-29T21:59:25.280Z,12.94
2022-10-29T22:04:26.150Z,12.86
2022-10-29T22:09:28.316Z,12.80
2022-10-29T22:14:29.168Z,12.78
2022-10-29T22:19:29.930Z,12.78
2022-10-29T22:24:32.195Z,12.79
2022-10-29T22:29:32.993Z,12.74
2022-10-29T22:34:33.767Z,12.79
2022-10-29T22:39:35.912Z,12.72
2022-10-29T22:44:36.675Z,12.70
2022-10-29T22:49:37.431Z,12.70
2022-10-29T22:54:39.593Z,12.65
2022-10-29T22:59:40.360Z,12.67
2022-10-29T23:04:41.209Z,12.59
2022-10-29T23:09:43.339Z,12.63
2022-10-29T23:14:44.101Z,12.65
2022-10-29T23:19:44.894Z,12.70
2022-10-29T23:24:47.033Z,12.62
2022-10-29T23:29:47.848Z,12.64
2022-10-29T23:34:49.952Z,12.65
2022-10-29T23:39:52.075Z,12.71
2022-10-29T23:44:52.911Z,12.84
2022-10-29T23:49:53.697Z,12.85
2022-10-29T23:54:55.814Z,12.89
2022-10-29T23:59:56.572Z,12.90
